createdAt,value
2022-07-28T00:02:05.946Z,16.67
2022-07-28T00:04:34.046Z,16.65
2022-07-28T00:07:01.352Z,16.65
2022-07-28T00:09:28.119Z,16.63
2022-07-28T00:11:55.124Z,16.62
2022-07-28T00:14:22.284Z,16.61
2022-07-28T00:16:48.881Z,16.58
2022-07-28T00:19:15.596Z,16.52
2022-07-28T00:21:42.199Z,16.48
2022-07-28T00:24:09.093Z,16.44
2022-07-28T00:26:36.142Z,16.40
2022-07-28T00:29:02.846Z,16.35
2022-07-28T00:31:29.651Z,16.34
2022-07-28T00:33:56.381Z,16.32
2022-07-28T00:36:25.758Z,16.33
2022-07-28T00:38:52.667Z,16.31
2022-07-28T00:41:20.701Z,16.28
2022-07-28T00:43:52.484Z,16.25
2022-07-28T00:46:21.700Z,16.24
2022-07-28T00:48:53.787Z,16.21
2022-07-28T00:51:22.068Z,16.21
2022-07-28T00:53:48.819Z,16.17
2022-07-28T00:56:16.174Z,16.13
2022-07-28T00:58:43.196Z,16.12
2022-07-28T01:01:11.467Z,16.09
2022-07-28T01:03:41.550Z,16.07
2022-07-28T01:06:23.195Z,16.03
2022-07-28T01:09:10.784Z,16.03
2022-07-28T01:12:14.427Z,16.04
2022-07-28T01:14:44.071Z,16.07
2022-07-28T01:17:36.038Z,16.05
2022-07-28T01:20:13.612Z,16.06
2022-07-28T01:22:45.459Z,16.06
2022-07-28T01:25:23.601Z,16.06
2022-07-28T01:28:11.871Z,16.01
2022-07-28T01:30:43.749Z,16.04
2022-07-28T01:33:33.629Z,16.04
2022-07-28T01:36:26.462Z,16.01
2022-07-28T01:38:53.400Z,16.03
2022-07-28T01:41:23.672Z,16.01
2022-07-28T01:44:16.757Z,15.95
2022-07-28T01:46:46.577Z,15.97
2022-07-28T01:49:14.412Z,15.96
2022-07-28T01:51:42.873Z,15.94
2022-07-28T01:54:12.599Z,15.92
2022-07-28T01:56:41.794Z,15.90
2022-07-28T01:59:12.167Z,15.87
2022-07-28T02:01:44.135Z,15.85
2022-07-28T02:04:12.647Z,15.86
2022-07-28T02:06:41.937Z,15.83
2022-07-28T02:09:10.288Z,15.81
2022-07-28T02:11:40.186Z,15.80
2022-07-28T02:14:08.448Z,15.76
2022-07-28T02:16:35.222Z,15.75
2022-07-28T02:19:02.889Z,15.74
2022-07-28T02:21:32.424Z,15.71
2022-07-28T02:24:04.138Z,15.71
2022-07-28T02:26:36.847Z,15.70
2022-07-28T02:29:06.509Z,15.71
2022-07-28T02:31:42.011Z,15.71
2022-07-28T02:34:11.233Z,15.72
2022-07-28T02:36:44.999Z,15.70
2022-07-28T02:39:24.034Z,15.67
2022-07-28T02:42:01.825Z,15.65
2022-07-28T02:44:35.928Z,15.63
2022-07-28T02:47:05.746Z,15.62
2022-07-28T02:49:35.378Z,15.59
2022-07-28T02:52:05.079Z,15.57
2022-07-28T02:54:33.000Z,15.55
2022-07-28T02:57:00.945Z,15.52
2022-07-28T02:59:28.895Z,15.49
2022-07-28T03:01:56.939Z,15.48
2022-07-28T03:04:43.832Z,15.44
2022-07-28T03:07:11.297Z,15.43
2022-07-28T03:09:41.797Z,15.41
2022-07-28T03:12:09.897Z,15.41
2022-07-28T03:14:36.817Z,15.42
2022-07-28T03:17:04.189Z,15.40
2022-07-28T03:19:30.915Z,15.36
2022-07-28T03:21:57.675Z,15.36
2022-07-28T03:24:28.738Z,15.33
2022-07-28T03:27:07.489Z,15.28
2022-07-28T03:29:35.680Z,15.29
2022-07-28T03:32:02.571Z,15.29
2022-07-28T03:34:29.868Z,15.26
2022-07-28T03:37:11.981Z,15.23
2022-07-28T03:39:46.847Z,15.26
2022-07-28T03:42:17.608Z,15.26
2022-07-28T03:44:46.839Z,15.26
2022-07-28T03:47:14.409Z,15.28
2022-07-28T03:49:40.942Z,15.30
2022-07-28T03:52:07.568Z,15.32
2022-07-28T03:54:34.123Z,15.33
2022-07-28T03:57:01.265Z,15.34
2022-07-28T03:59:27.837Z,15.37
2022-07-28T04:01:56.451Z,15.36
2022-07-28T04:04:23.943Z,15.37
2022-07-28T04:06:50.485Z,15.37
2022-07-28T04:09:17.863Z,15.37
2022-07-28T04:11:44.467Z,15.37
2022-07-28T04:14:14.755Z,15.36
2022-07-28T04:16:43.580Z,15.37
2022-07-28T04:19:10.251Z,15.36
2022-07-28T04:21:36.768Z,15.33
2022-07-28T04:24:03.389Z,15.31
2022-07-28T04:26:29.917Z,15.29
2022-07-28T04:28:56.447Z,15.26
2022-07-28T04:31:23.165Z,15.22
2022-07-28T04:33:50.723Z,15.22
2022-07-28T04:36:17.633Z,15.18
2022-07-28T04:38:44.226Z,15.16
2022-07-28T04:41:10.761Z,15.15
2022-07-28T04:43:38.752Z,15.12
2022-07-28T04:46:05.474Z,15.12
2022-07-28T04:48:32.059Z,15.09
2022-07-28T04:50:58.677Z,15.08
2022-07-28T04:53:25.345Z,15.07
2022-07-28T04:55:53.649Z,15.06
2022-07-28T04:58:22.611Z,15.04
2022-07-28T05:00:50.722Z,15.03
2022-07-28T05:03:18.786Z,15.01
2022-07-28T05:05:47.459Z,15.01
2022-07-28T05:08:20.867Z,15.00
2022-07-28T05:10:48.353Z,15.00
2022-07-28T05:13:14.951Z,15.00
2022-07-28T05:15:41.460Z,15.02
2022-07-28T05:18:08.050Z,15.03
2022-07-28T05:20:35.563Z,15.07
2022-07-28T05:23:04.113Z,15.12
2022-07-28T05:25:30.746Z,15.17
2022-07-28T05:27:57.347Z,15.22
2022-07-28T05:30:24.005Z,15.29
2022-07-28T05:32:51.211Z,15.34
2022-07-28T05:35:17.973Z,15.40
2022-07-28T05:37:44.582Z,15.46
2022-07-28T05:40:14.159Z,15.52
2022-07-28T05:42:44.894Z,15.57
2022-07-28T05:45:16.383Z,15.66
2022-07-28T05:47:54.006Z,15.69
2022-07-28T05:50:22.536Z,15.78
2022-07-28T05:52:49.363Z,15.85
2022-07-28T05:55:16.436Z,15.91
2022-07-28T05:57:43.557Z,15.98
2022-07-28T06:00:13.984Z,16.05
2022-07-28T06:02:42.006Z,16.12
2022-07-28T06:05:09.062Z,16.19
2022-07-28T06:07:43.554Z,16.25
2022-07-28T06:10:12.422Z,16.32
2022-07-28T06:12:47.451Z,16.36
2022-07-28T06:15:25.840Z,16.45
2022-07-28T06:17:55.394Z,16.53
2022-07-28T06:20:23.773Z,16.61
2022-07-28T06:22:55.184Z,16.67
2022-07-28T06:25:24.495Z,16.75
2022-07-28T06:27:56.337Z,16.83
2022-07-28T06:30:24.133Z,16.89
2022-07-28T06:32:51.652Z,16.97
2022-07-28T06:35:19.249Z,17.02
2022-07-28T06:37:48.068Z,17.08
2022-07-28T06:40:16.077Z,17.14
2022-07-28T06:42:43.705Z,17.20
2022-07-28T06:45:20.671Z,17.25
2022-07-28T06:47:52.654Z,17.31
2022-07-28T06:50:26.179Z,17.37
2022-07-28T06:52:55.354Z,17.42
2022-07-28T06:55:22.048Z,17.45
2022-07-28T06:57:49.299Z,17.48
2022-07-28T07:00:16.611Z,17.51
2022-07-28T07:02:43.645Z,17.52
2022-07-28T07:05:12.098Z,17.55
2022-07-28T07:07:42.990Z,17.58
2022-07-28T07:10:10.863Z,17.62
2022-07-28T07:12:38.095Z,17.65
2022-07-28T07:15:05.655Z,17.68
2022-07-28T07:17:32.547Z,17.71
2022-07-28T07:19:59.136Z,17.75
2022-07-28T07:22:25.861Z,17.80
2022-07-28T07:24:56.701Z,17.84
2022-07-28T07:27:23.848Z,17.88
2022-07-28T07:29:50.409Z,17.92
2022-07-28T07:32:16.958Z,17.99
2022-07-28T07:34:43.522Z,18.04
2022-07-28T07:37:13.730Z,18.12
2022-07-28T07:39:41.136Z,18.21
2022-07-28T07:42:07.838Z,18.28
2022-07-28T07:44:34.642Z,18.35
2022-07-28T07:47:01.377Z,18.42
2022-07-28T07:49:45.154Z,18.50
2022-07-28T07:52:13.620Z,18.58
2022-07-28T07:54:40.324Z,18.65
2022-07-28T07:57:06.934Z,18.74
2022-07-28T07:59:33.413Z,18.80
2022-07-28T08:02:00.559Z,18.89
2022-07-28T08:04:27.215Z,18.98
2022-07-28T08:06:55.467Z,19.08
2022-07-28T08:09:23.157Z,19.16
2022-07-28T08:11:49.779Z,19.25
2022-07-28T08:14:17.613Z,19.33
2022-07-28T08:16:44.765Z,19.39
2022-07-28T08:19:12.267Z,19.48
2022-07-28T08:21:39.548Z,19.56
2022-07-28T08:24:06.612Z,19.64
2022-07-28T08:26:33.145Z,19.72
2022-07-28T08:28:59.708Z,19.79
2022-07-28T08:31:26.637Z,19.88
2022-07-28T08:33:54.760Z,19.96
2022-07-28T08:36:23.063Z,20.02
2022-07-28T08:38:50.091Z,20.08
2022-07-28T08:41:22.801Z,20.15
2022-07-28T08:43:52.321Z,20.23
2022-07-28T08:46:21.150Z,20.31
2022-07-28T08:48:48.610Z,20.40
2022-07-28T08:51:15.710Z,20.49
2022-07-28T08:53:43.663Z,20.58
2022-07-28T08:56:14.684Z,20.63
2022-07-28T08:58:42.104Z,20.72
2022-07-28T09:01:10.899Z,20.79
2022-07-28T09:03:39.128Z,20.86
2022-07-28T09:06:06.339Z,20.93
2022-07-28T09:08:33.387Z,21.02
2022-07-28T09:11:00.089Z,21.10
2022-07-28T09:13:26.752Z,21.17
2022-07-28T09:15:53.516Z,21.26
2022-07-28T09:18:21.359Z,21.35
2022-07-28T09:20:47.961Z,21.43
2022-07-28T09:23:42.900Z,21.53
2022-07-28T09:26:12.627Z,21.60
2022-07-28T09:28:54.382Z,21.68
2022-07-28T09:31:24.057Z,21.79
2022-07-28T09:33:55.001Z,21.85
2022-07-28T09:36:21.931Z,21.93
2022-07-28T09:38:48.645Z,21.99
2022-07-28T09:41:18.903Z,22.06
2022-07-28T09:43:47.030Z,22.16
2022-07-28T09:46:23.542Z,22.19
2022-07-28T09:48:50.538Z,22.28
2022-07-28T09:51:33.476Z,22.35
2022-07-28T09:54:26.265Z,22.43
2022-07-28T09:56:52.886Z,22.58
2022-07-28T09:59:19.548Z,22.63
2022-07-28T10:01:52.506Z,22.68
2022-07-28T10:04:51.008Z,22.73
2022-07-28T10:07:18.161Z,22.88
2022-07-28T10:09:58.347Z,22.93
2022-07-28T10:12:30.747Z,23.03
2022-07-28T10:14:59.877Z,23.14
2022-07-28T10:17:33.282Z,23.21
2022-07-28T10:20:02.079Z,23.32
2022-07-28T10:22:34.115Z,23.39
2022-07-28T10:25:12.846Z,23.50
2022-07-28T10:27:44.516Z,23.64
2022-07-28T10:30:12.455Z,23.76
2022-07-28T10:32:42.018Z,23.85
2022-07-28T10:35:14.268Z,23.94
2022-07-28T10:37:52.621Z,24.03
2022-07-28T10:40:23.218Z,24.13
2022-07-28T10:42:50.091Z,24.23
2022-07-28T10:45:17.174Z,24.32
2022-07-28T10:47:45.172Z,24.45
2022-07-28T10:50:11.777Z,24.59
2022-07-28T10:52:50.439Z,24.79
2022-07-28T10:55:31.769Z,25.07
2022-07-28T10:58:17.318Z,25.43
2022-07-28T11:00:56.069Z,25.88
2022-07-28T11:03:38.465Z,26.43
2022-07-28T11:06:40.204Z,27.02
2022-07-28T11:09:15.998Z,27.58
2022-07-28T11:11:45.237Z,28.05
2022-07-28T11:14:39.473Z,28.48
2022-07-28T11:17:10.583Z,29.03
2022-07-28T11:22:34.246Z,30.04
2022-07-28T11:25:21.023Z,30.47
2022-07-28T11:27:49.914Z,30.95
2022-07-28T11:30:16.463Z,31.33
2022-07-28T11:32:53.431Z,31.68
2022-07-28T11:35:29.615Z,32.03
2022-07-28T11:38:02.281Z,32.31
2022-07-28T11:40:30.013Z,32.57
2022-07-28T11:43:35.266Z,32.75
2022-07-28T11:46:04.779Z,33.04
2022-07-28T11:48:37.920Z,33.19
2022-07-28T11:51:04.553Z,33.46
2022-07-28T11:53:39.422Z,33.59
2022-07-28T11:56:10.935Z,33.72
2022-07-28T11:58:38.673Z,33.77
2022-07-28T12:01:17.791Z,33.59
2022-07-28T12:03:55.442Z,33.53
2022-07-28T12:06:28.906Z,33.50
2022-07-28T12:09:04.868Z,33.55
2022-07-28T12:11:33.728Z,33.70
2022-07-28T12:14:00.916Z,33.87
2022-07-28T12:16:29.353Z,34.08
2022-07-28T12:18:56.710Z,34.30
2022-07-28T12:21:47.613Z,34.50
2022-07-28T12:24:28.906Z,34.78
2022-07-28T12:26:57.751Z,35.01
2022-07-28T12:29:35.449Z,35.23
2022-07-28T12:32:09.214Z,35.43
2022-07-28T12:34:39.843Z,35.64
2022-07-28T12:37:09.989Z,35.82
2022-07-28T12:39:39.855Z,35.99
2022-07-28T12:42:09.684Z,36.13
2022-07-28T12:44:41.397Z,36.25
2022-07-28T12:47:12.054Z,36.44
2022-07-28T12:49:40.722Z,36.54
2022-07-28T12:52:25.187Z,36.37
2022-07-28T12:54:55.803Z,36.27
2022-07-28T12:57:51.562Z,36.03
2022-07-28T13:00:31.442Z,36.02
2022-07-28T13:02:59.914Z,36.13
2022-07-28T13:05:56.881Z,36.16
2022-07-28T13:08:24.659Z,36.28
2022-07-28T13:10:56.672Z,36.28
2022-07-28T13:13:24.331Z,36.18
2022-07-28T13:16:16.662Z,35.85
2022-07-28T13:18:45.374Z,35.58
2022-07-28T13:21:12.228Z,35.20
2022-07-28T13:23:39.462Z,34.85
2022-07-28T13:26:07.325Z,34.64
2022-07-28T13:28:34.360Z,34.59
2022-07-28T13:31:00.908Z,34.65
2022-07-28T13:33:28.481Z,34.84
2022-07-28T13:35:55.510Z,35.08
2022-07-28T13:38:22.089Z,35.33
2022-07-28T13:40:48.588Z,35.57
2022-07-28T13:43:15.176Z,35.81
2022-07-28T13:45:42.023Z,36.00
2022-07-28T13:48:09.288Z,36.20
2022-07-28T13:50:35.829Z,36.35
2022-07-28T13:53:02.408Z,36.58
2022-07-28T13:55:29.074Z,36.83
2022-07-28T13:57:56.412Z,37.06
2022-07-28T14:00:24.254Z,37.26
2022-07-28T14:02:51.447Z,37.38
2022-07-28T14:05:18.320Z,37.49
2022-07-28T14:07:48.847Z,37.56
2022-07-28T14:10:17.269Z,37.67
2022-07-28T14:12:46.014Z,37.79
2022-07-28T14:15:13.198Z,37.90
2022-07-28T14:17:43.208Z,38.01
2022-07-28T14:20:12.109Z,38.16
2022-07-28T14:22:38.728Z,38.23
2022-07-28T14:25:05.677Z,38.16
2022-07-28T14:27:32.700Z,38.01
2022-07-28T14:29:59.255Z,37.88
2022-07-28T14:32:30.242Z,37.76
2022-07-28T14:34:56.959Z,37.68
2022-07-28T14:37:23.664Z,37.61
2022-07-28T14:39:50.258Z,37.52
2022-07-28T14:42:16.741Z,37.41
2022-07-28T14:44:43.325Z,37.31
2022-07-28T14:47:09.987Z,37.20
2022-07-28T14:49:36.606Z,37.13
2022-07-28T14:52:03.985Z,37.08
2022-07-28T14:54:30.613Z,37.05
2022-07-28T14:56:57.244Z,37.05
2022-07-28T14:59:23.867Z,37.01
2022-07-28T15:01:50.590Z,36.90
2022-07-28T15:04:18.454Z,36.69
2022-07-28T15:06:45.506Z,36.48
2022-07-28T15:09:12.068Z,36.26
2022-07-28T15:11:39.795Z,36.09
2022-07-28T15:14:06.352Z,35.96
2022-07-28T15:16:33.204Z,35.85
2022-07-28T15:19:00.026Z,35.77
2022-07-28T15:21:26.587Z,35.73
2022-07-28T15:23:53.609Z,35.75
2022-07-28T15:26:20.356Z,35.78
2022-07-28T15:28:48.719Z,35.85
2022-07-28T15:31:17.148Z,35.96
2022-07-28T15:33:48.497Z,36.09
2022-07-28T15:36:25.470Z,36.22
2022-07-28T15:38:53.103Z,36.32
2022-07-28T15:41:20.178Z,36.37
2022-07-28T15:43:47.708Z,36.34
2022-07-28T15:46:14.842Z,36.27
2022-07-28T15:48:43.325Z,36.12
2022-07-28T15:51:10.266Z,35.95
2022-07-28T15:53:37.199Z,35.72
2022-07-28T15:56:04.673Z,35.50
2022-07-28T15:58:31.739Z,35.32
2022-07-28T16:00:59.391Z,35.22
2022-07-28T16:03:28.628Z,35.21
2022-07-28T16:05:55.261Z,35.27
2022-07-28T16:08:22.430Z,35.38
2022-07-28T16:10:49.759Z,35.50
2022-07-28T16:13:22.749Z,35.63
2022-07-28T16:16:02.992Z,35.77
2022-07-28T16:18:29.611Z,35.87
2022-07-28T16:20:56.222Z,35.96
2022-07-28T16:23:22.871Z,36.01
2022-07-28T16:25:49.489Z,36.04
2022-07-28T16:28:16.294Z,36.07
2022-07-28T16:30:42.947Z,36.09
2022-07-28T16:33:09.550Z,36.05
2022-07-28T16:35:36.093Z,35.96
2022-07-28T16:38:05.340Z,35.81
2022-07-28T16:40:32.909Z,35.63
2022-07-28T16:43:03.449Z,35.41
2022-07-28T16:45:31.550Z,35.12
2022-07-28T16:47:59.010Z,34.74
2022-07-28T16:50:25.987Z,34.31
2022-07-28T16:52:54.149Z,33.86
2022-07-28T16:55:23.632Z,33.39
2022-07-28T16:57:53.690Z,32.95
2022-07-28T17:00:21.047Z,32.52
2022-07-28T17:02:47.602Z,32.15
2022-07-28T17:05:14.291Z,31.80
2022-07-28T17:07:45.862Z,31.49
2022-07-28T17:10:15.296Z,31.19
2022-07-28T17:12:49.830Z,30.92
2022-07-28T17:15:22.435Z,30.64
2022-07-28T17:17:51.160Z,30.37
2022-07-28T17:20:17.908Z,30.12
2022-07-28T17:22:45.162Z,29.89
2022-07-28T17:25:42.966Z,29.66
2022-07-28T17:27:58.664Z,29.45
2022-07-28T17:30:25.253Z,29.23
2022-07-28T17:32:52.802Z,29.03
2022-07-28T17:35:34.289Z,28.85
2022-07-28T17:38:03.038Z,28.65
2022-07-28T17:40:29.589Z,28.48
2022-07-28T17:42:56.224Z,28.30
2022-07-28T17:45:24.103Z,28.13
2022-07-28T17:47:50.896Z,27.99
2022-07-28T17:50:17.623Z,27.86
2022-07-28T17:52:44.997Z,27.73
2022-07-28T17:55:31.044Z,27.63
2022-07-28T17:58:09.352Z,27.48
2022-07-28T18:00:36.786Z,27.43
2022-07-28T18:03:03.551Z,27.35
2022-07-28T18:05:40.574Z,27.25
2022-07-28T18:08:09.994Z,27.15
2022-07-28T18:10:38.058Z,27.05
2022-07-28T18:13:05.794Z,26.96
2022-07-28T18:15:35.300Z,26.87
2022-07-28T18:18:03.610Z,26.75
2022-07-28T18:20:31.397Z,26.67
2022-07-28T18:22:58.679Z,26.57
2022-07-28T18:25:31.626Z,26.46
2022-07-28T18:27:58.576Z,26.39
2022-07-28T18:30:26.046Z,26.32
2022-07-28T18:32:53.539Z,26.23
2022-07-28T18:35:21.101Z,26.15
2022-07-28T18:37:48.785Z,26.05
2022-07-28T18:40:17.554Z,25.97
2022-07-28T18:42:45.179Z,25.89
2022-07-28T18:45:13.526Z,25.81
2022-07-28T18:47:47.720Z,25.73
2022-07-28T18:50:30.452Z,25.67
2022-07-28T18:52:58.825Z,25.60
2022-07-28T18:55:25.581Z,25.54
2022-07-28T18:57:52.355Z,25.47
2022-07-28T19:00:19.233Z,25.41
2022-07-28T19:02:45.967Z,25.35
2022-07-28T19:05:12.547Z,25.31
2022-07-28T19:07:39.193Z,25.26
2022-07-28T19:10:06.707Z,25.20
2022-07-28T19:12:34.283Z,25.14
2022-07-28T19:15:01.701Z,25.09
2022-07-28T19:17:28.289Z,25.02
2022-07-28T19:19:59.434Z,24.96
2022-07-28T19:22:26.074Z,24.90
2022-07-28T19:24:52.859Z,24.83
2022-07-28T19:27:20.249Z,24.77
2022-07-28T19:29:47.294Z,24.70
2022-07-28T19:32:13.980Z,24.65
2022-07-28T19:34:42.991Z,24.58
2022-07-28T19:37:17.121Z,24.51
2022-07-28T19:39:45.886Z,24.45
2022-07-28T19:42:12.871Z,24.37
2022-07-28T19:44:39.717Z,24.31
2022-07-28T19:47:06.353Z,24.24
2022-07-28T19:49:32.964Z,24.16
2022-07-28T19:51:59.668Z,24.08
2022-07-28T19:54:26.657Z,24.02
2022-07-28T19:56:53.943Z,23.96
2022-07-28T19:59:22.334Z,23.91
2022-07-28T20:01:50.755Z,23.86
2022-07-28T20:04:18.339Z,23.82
2022-07-28T20:06:45.111Z,23.74
2022-07-28T20:09:12.693Z,23.68
2022-07-28T20:11:39.603Z,23.63
2022-07-28T20:14:06.333Z,23.55
2022-07-28T20:16:33.059Z,23.48
2022-07-28T20:19:00.349Z,23.41
2022-07-28T20:21:27.010Z,23.35
2022-07-28T20:23:57.298Z,23.29
2022-07-28T20:26:27.593Z,23.25
2022-07-28T20:28:56.483Z,23.20
2022-07-28T20:31:23.030Z,23.17
2022-07-28T20:33:50.217Z,23.12
2022-07-28T20:36:16.990Z,23.06
2022-07-28T20:38:45.194Z,23.00
2022-07-28T20:41:12.203Z,22.97
2022-07-28T20:43:38.831Z,22.93
2022-07-28T20:46:05.589Z,22.88
2022-07-28T20:48:32.298Z,22.82
2022-07-28T20:50:58.809Z,22.78
2022-07-28T20:53:25.329Z,22.75
2022-07-28T20:55:51.873Z,22.72
2022-07-28T20:58:18.471Z,22.69
2022-07-28T21:00:45.246Z,22.67
2022-07-28T21:03:12.186Z,22.63
2022-07-28T21:05:38.755Z,22.61
2022-07-28T21:08:09.283Z,22.60
2022-07-28T21:10:42.676Z,22.58
2022-07-28T21:13:09.276Z,22.57
2022-07-28T21:15:35.931Z,22.55
2022-07-28T21:18:02.553Z,22.51
2022-07-28T21:20:29.144Z,22.48
2022-07-28T21:22:55.683Z,22.45
2022-07-28T21:25:22.861Z,22.41
2022-07-28T21:28:07.828Z,22.37
2022-07-28T21:30:34.346Z,22.31
2022-07-28T21:33:01.009Z,22.29
2022-07-28T21:35:27.670Z,22.23
2022-07-28T21:37:54.231Z,22.19
2022-07-28T21:40:20.758Z,22.16
2022-07-28T21:42:47.630Z,22.11
2022-07-28T21:45:14.244Z,22.07
2022-07-28T21:47:41.349Z,22.04
2022-07-28T21:50:08.367Z,21.99
2022-07-28T21:52:37.085Z,21.96
2022-07-28T21:55:06.274Z,21.91
2022-07-28T21:57:33.016Z,21.87
2022-07-28T21:59:59.540Z,21.84
2022-07-28T22:02:26.592Z,21.80
2022-07-28T22:04:53.223Z,21.77
2022-07-28T22:07:19.838Z,21.73
2022-07-28T22:09:46.387Z,21.69
2022-07-28T22:12:13.075Z,21.65
2022-07-28T22:14:39.619Z,21.60
2022-07-28T22:17:06.230Z,21.55
2022-07-28T22:19:32.767Z,21.50
2022-07-28T22:21:59.391Z,21.44
2022-07-28T22:24:25.932Z,21.38
2022-07-28T22:26:52.577Z,21.34
2022-07-28T22:29:19.324Z,21.30
2022-07-28T22:31:46.104Z,21.25
2022-07-28T22:34:12.835Z,21.20
2022-07-28T22:36:39.557Z,21.16
2022-07-28T22:39:06.178Z,21.13
2022-07-28T22:41:32.938Z,21.10
2022-07-28T22:43:59.548Z,21.07
2022-07-28T22:46:26.117Z,21.04
2022-07-28T22:48:52.857Z,21.00
2022-07-28T22:51:19.598Z,20.96
2022-07-28T22:53:46.165Z,20.94
2022-07-28T22:56:13.069Z,20.90
2022-07-28T22:58:40.149Z,20.88
2022-07-28T23:01:07.093Z,20.85
2022-07-28T23:03:33.805Z,20.80
2022-07-28T23:06:00.962Z,20.75
2022-07-28T23:08:28.223Z,20.72
2022-07-28T23:10:55.226Z,20.66
2022-07-28T23:13:22.044Z,20.64
2022-07-28T23:15:48.700Z,20.62
2022-07-28T23:18:15.245Z,20.59
2022-07-28T23:20:43.389Z,20.58
2022-07-28T23:23:12.054Z,20.56
2022-07-28T23:25:42.888Z,20.53
2022-07-28T23:28:10.363Z,20.52
2022-07-28T23:30:37.031Z,20.51
2022-07-28T23:33:04.648Z,20.48
2022-07-28T23:35:31.338Z,20.46
2022-07-28T23:37:57.905Z,20.44
2022-07-28T23:40:24.529Z,20.41
2022-07-28T23:42:51.030Z,20.41
2022-07-28T23:45:17.558Z,20.40
2022-07-28T23:47:44.084Z,20.39
2022-07-28T23:50:10.821Z,20.37
2022-07-28T23:52:37.455Z,20.36
2022-07-28T23:55:05.153Z,20.35
2022-07-28T23:57:31.871Z,20.35
